الصفحة الرئيسية
METAR-TAF:

METAR-TAF

مطار :

Cesária Évora

São Vicente, الرأس الأخضر

دائرة عرض: 16-49-59N, خط طول: 25-03-25W, ارتفاع: 20 متر

مراقبة الطقس الحالي

تاريخ ووقت الإصدار 15 دقيقة قبل الساعة 02:00UTC
ريح 20 عقدة من الشرق/الشمال الشرقي
درجة الحرارة 22°درجة مئوية
الرطوبة 69%
ضغط 1018 hPa
الرؤية 10 كم أو أكثر
غيوم قليلة على ارتفاع 2200 قدم

METAR: GVSV 240200Z 06020KT 9999 FEW022 22/16 Q1018 NOSIG

زمن: 01:15 (02:15 UTC)

توقعات

تاريخ ووقت الإصدار 3ساعات و 15 دقيقة قبل الساعة 23:00UTC
التوقعات صالحة من24 الساعة 00 UTC إلى 25 الساعة 06 UTC
ريح 22 عقدة من الشرق/الشمال الشرقي
الرؤية 10 كم أو أكثر
غيوم قليلة على ارتفاع 2000 قدم
أصبح
من 24 الساعة 10 UTC إلى 24 الساعة 12 UTC
ريح 25 عقدة من الشرق/الشمال الشرقي تتزايد حتى 35 عقدة

TAF: GVSV 232300Z 2400/2506 06022KT 9999 FEW020 BECMG 2410/2412 06025G35KT

أرصاد الطقس والتوقعات من أكثر من 4000 مطار (تقارير الطقس للمطار METAR والتنبؤ بالطقس بالمطارTAF).

المحطات المتاحة هي النقط الصفراء والحمراء على الخريطة.

حرك المؤشر فوق النقطة لمعرفة اسم المحطة.

ثم انقر لمعرفة أرصاد وتوقعات الطقس.

لتغيير الخارطة: اضغط على الأزرار الخضراء مع رمز الصليب الأسود للتكبير. على الزر الأخضر مع شرطة للتصغير، أو على الأسهم الخضراء للخرائط المجاورة.


METAR-TAF: